Time;durP1;ratioP1;P1;durP2;ratioP2;P2;SDS_P1;SDS_P2;PMS_P1;PMS_P2;Temp;Humidity;BMP_temperature;BMP_pressure;BME280_temperature;BME280_humidity;BME280_pressure;Samples;Min_cycle;Max_cycle;Signal;HPM_P1;HPM_P2
2021/01/01 00:01:23;;;;;;;18.50;7.70;;;8.60;64.70;;;;;;6280530;28;20064;-82
2021/01/01 00:04:24;;;;;;;22.42;9.00;;;8.60;64.80;;;;;;6280943;28;20020;-81
2021/01/01 00:07:25;;;;;;;20.63;7.72;;;8.50;64.80;;;;;;6265736;28;20025;-82
2021/01/01 00:10:26;;;;;;;12.65;6.18;;;8.60;65.00;;;;;;6281142;28;20028;-82
2021/01/01 00:13:27;;;;;;;13.02;6.72;;;8.60;64.90;;;;;;6281161;28;20039;-81
2021/01/01 00:16:28;;;;;;;10.93;5.07;;;8.60;64.90;;;;;;6270987;28;20029;-81
2021/01/01 00:19:29;;;;;;;14.85;6.50;;;8.60;64.90;;;;;;6236014;28;20040;-82
2021/01/01 00:22:31;;;;;;;12.95;6.60;;;8.50;64.70;;;;;;6282890;28;20064;-80
2021/01/01 00:25:32;;;;;;;12.77;6.68;;;8.50;64.90;;;;;;6246980;28;20103;-80
2021/01/01 00:28:33;;;;;;;12.93;5.78;;;8.50;64.90;;;;;;6247281;28;20029;-81
2021/01/01 00:31:34;;;;;;;13.77;6.22;;;8.50;64.90;;;;;;6235730;28;20049;-80
2021/01/01 00:34:48;;;;;;;11.50;5.20;;;8.50;65.70;;;;;;6231759;28;20099;-81
2021/01/01 00:37:55;;;;;;;11.50;6.25;;;8.50;65.00;;;;;;6224021;28;20033;-81
2021/01/01 00:41:08;;;;;;;16.97;6.57;;;8.60;65.20;;;;;;6227185;28;20036;-81
2021/01/01 00:44:11;;;;;;;16.55;6.28;;;8.40;65.20;;;;;;6227778;28;20823;-81
2021/01/01 00:47:49;;;;;;;12.82;5.90;;;8.40;65.40;;;;;;6234224;28;20045;-81
2021/01/01 00:50:50;;;;;;;12.05;5.78;;;8.40;65.70;;;;;;6232970;28;20550;-81
2021/01/01 00:53:54;;;;;;;14.57;5.93;;;8.40;65.80;;;;;;6221999;28;20041;-82
2021/01/01 00:56:56;;;;;;;14.70;5.65;;;8.40;65.90;;;;;;6231797;28;20043;-82
2021/01/01 00:59:57;;;;;;;9.18;5.15;;;8.30;65.90;;;;;;6235689;28;20029;-81
2021/01/01 01:02:58;;;;;;;12.82;5.45;;;8.40;65.90;;;;;;6274444;28;20142;-81
2021/01/01 01:05:59;;;;;;;11.75;5.25;;;8.30;65.90;;;;;;6263981;28;20032;-82
2021/01/01 01:09:00;;;;;;;17.27;6.05;;;8.30;65.90;;;;;;6239240;28;20106;-83
2021/01/01 01:12:01;;;;;;;13.80;6.55;;;8.40;65.90;;;;;;6272316;28;20029;-81
2021/01/01 01:15:02;;;;;;;13.02;5.97;;;8.40;65.90;;;;;;6273584;28;20033;-82
2021/01/01 01:18:03;;;;;;;14.70;6.17;;;8.40;65.90;;;;;;6238416;28;20037;-80
2021/01/01 01:21:04;;;;;;;14.90;5.72;;;8.50;65.80;;;;;;6236993;28;20047;-81
2021/01/01 01:24:06;;;;;;;13.43;6.32;;;8.50;65.80;;;;;;6287144;28;20056;-81
2021/01/01 01:27:07;;;;;;;10.23;5.78;;;8.50;65.70;;;;;;6278656;28;20029;-82
2021/01/01 01:30:08;;;;;;;13.90;5.63;;;8.60;65.70;;;;;;6297814;28;20113;-81
2021/01/01 01:33:09;;;;;;;14.35;5.93;;;8.60;65.60;;;;;;6262401;28;20032;-80
2021/01/01 01:36:11;;;;;;;11.27;5.85;;;8.60;65.50;;;;;;6270026;28;20049;-81
2021/01/01 01:39:13;;;;;;;13.27;5.38;;;8.60;65.40;;;;;;6263048;28;20039;-81
2021/01/01 01:42:14;;;;;;;10.27;5.68;;;8.60;65.30;;;;;;6279651;28;20083;-80
2021/01/01 01:45:15;;;;;;;12.98;5.57;;;8.60;65.20;;;;;;6267199;28;20119;-80
2021/01/01 01:48:22;;;;;;;13.88;5.55;;;8.60;65.30;;;;;;6279783;28;20043;-81
2021/01/01 01:51:23;;;;;;;12.10;5.47;;;8.60;65.30;;;;;;6278826;28;20120;-81
2021/01/01 01:54:25;;;;;;;10.45;5.63;;;8.60;65.20;;;;;;6261016;28;20033;-81
2021/01/01 01:57:26;;;;;;;13.95;5.20;;;8.60;65.20;;;;;;6295739;28;20461;-80
2021/01/01 02:03:37;;;;;;;12.00;5.88;;;8.70;65.20;;;;;;6279510;28;20036;-81
2021/01/01 02:06:41;;;;;;;13.10;5.18;;;8.70;65.10;;;;;;6296733;28;20032;-81
2021/01/01 02:09:45;;;;;;;12.18;5.80;;;8.80;65.10;;;;;;6277644;28;20025;-81
2021/01/01 02:12:47;;;;;;;16.95;6.00;;;8.70;64.90;;;;;;6279614;28;20032;-81
2021/01/01 02:15:49;;;;;;;12.00;5.57;;;8.70;65.00;;;;;;6297865;28;20036;-81
2021/01/01 02:18:50;;;;;;;13.23;6.13;;;8.70;65.80;;;;;;6265249;28;20457;-81
2021/01/01 02:21:58;;;;;;;12.57;5.75;;;9.00;65.10;;;;;;6264671;28;20044;-81
2021/01/01 02:24:59;;;;;;;13.15;5.70;;;8.80;64.80;;;;;;6256540;28;20064;-81
2021/01/01 02:28:00;;;;;;;12.27;5.88;;;8.90;64.80;;;;;;6289088;28;20378;-80
2021/01/01 02:31:01;;;;;;;14.68;5.97;;;8.80;64.80;;;;;;6272006;28;20037;-80
2021/01/01 02:34:02;;;;;;;15.20;5.68;;;8.90;64.90;;;;;;6272796;28;20119;-81
2021/01/01 02:37:03;;;;;;;10.07;4.93;;;8.90;64.90;;;;;;6258096;28;20044;-81
2021/01/01 02:40:08;;;;;;;9.60;4.72;;;8.90;64.80;;;;;;6289981;28;20045;-80
2021/01/01 02:43:09;;;;;;;12.80;5.82;;;8.90;64.70;;;;;;6271389;28;20124;-81
2021/01/01 02:46:10;;;;;;;10.00;4.97;;;8.90;64.70;;;;;;6254852;28;20033;-80
2021/01/01 02:49:11;;;;;;;11.40;5.57;;;8.90;64.60;;;;;;6238468;28;20037;-80
2021/01/01 02:52:12;;;;;;;10.57;4.97;;;8.90;64.60;;;;;;6254886;28;20037;-80
2021/01/01 02:55:13;;;;;;;9.23;4.93;;;8.90;64.60;;;;;;6272098;28;20060;-80
2021/01/01 02:58:15;;;;;;;15.50;5.75;;;8.90;64.80;;;;;;6263408;28;20033;-80
2021/01/01 03:01:19;;;;;;;12.50;5.43;;;8.80;64.70;;;;;;6262985;28;20115;-80
2021/01/01 03:04:20;;;;;;;12.40;5.80;;;8.90;64.90;;;;;;6262634;28;20097;-80
2021/01/01 03:07:21;;;;;;;13.20;5.43;;;8.90;64.90;;;;;;6296755;28;20040;-81
2021/01/01 03:10:22;;;;;;;12.75;5.82;;;8.90;64.90;;;;;;6279017;28;20048;-80
2021/01/01 03:13:23;;;;;;;10.38;4.80;;;8.80;64.80;;;;;;6279208;28;20121;-80
2021/01/01 03:16:25;;;;;;;9.00;4.82;;;8.90;64.80;;;;;;6246309;28;20033;-80
2021/01/01 03:19:26;;;;;;;10.18;5.07;;;8.90;64.70;;;;;;6283443;28;20044;-80
2021/01/01 03:22:28;;;;;;;12.35;5.75;;;8.90;64.70;;;;;;6301597;28;20033;-82
2021/01/01 03:25:29;;;;;;;11.50;5.35;;;8.90;64.70;;;;;;6284462;28;20098;-80
2021/01/01 03:28:30;;;;;;;12.85;4.82;;;8.90;64.80;;;;;;6256622;28;20044;-80
2021/01/01 03:31:30;;;;;;;11.00;5.30;;;8.90;65.00;;;;;;6276518;28;20025;-80
2021/01/01 03:34:32;;;;;;;8.40;4.35;;;8.80;65.10;;;;;;6260853;28;20029;-80
2021/01/01 03:37:35;;;;;;;11.35;4.05;;;8.80;65.20;;;;;;6273056;28;20032;-80
2021/01/01 03:40:36;;;;;;;11.70;5.05;;;8.80;65.30;;;;;;6268611;28;20048;-80
2021/01/01 03:43:37;;;;;;;8.82;4.38;;;8.80;65.50;;;;;;6292633;28;20060;-80
2021/01/01 03:46:38;;;;;;;9.18;4.13;;;8.80;65.40;;;;;;6261912;28;20178;-81
2021/01/01 03:49:39;;;;;;;8.30;4.32;;;8.80;65.50;;;;;;6275111;28;20065;-81
2021/01/01 03:52:40;;;;;;;9.40;3.85;;;8.80;65.40;;;;;;6276365;28;20095;-80
2021/01/01 03:55:41;;;;;;;8.65;3.92;;;8.80;65.40;;;;;;6276513;28;20037;-81
2021/01/01 03:58:42;;;;;;;8.68;3.78;;;8.80;65.40;;;;;;6270599;28;20045;-81
2021/01/01 04:01:43;;;;;;;8.95;4.15;;;8.80;65.40;;;;;;6267436;28;20115;-80
2021/01/01 04:04:44;;;;;;;10.85;4.18;;;8.80;65.50;;;;;;6301643;28;20036;-80
2021/01/01 04:07:45;;;;;;;9.07;3.90;;;8.80;65.50;;;;;;6301529;28;20037;-80
2021/01/01 04:10:46;;;;;;;9.55;3.55;;;8.80;65.50;;;;;;6283098;28;20025;-80
2021/01/01 04:13:47;;;;;;;11.85;4.00;;;8.80;65.50;;;;;;6283964;28;20128;-81
2021/01/01 04:16:48;;;;;;;10.30;4.38;;;8.80;65.50;;;;;;6266686;28;20102;-81
2021/01/01 04:19:50;;;;;;;7.00;3.33;;;8.80;65.50;;;;;;6283503;28;20063;-80
2021/01/01 04:22:51;;;;;;;8.77;4.05;;;8.70;65.60;;;;;;6300983;28;20123;-80
2021/01/01 04:25:51;;;;;;;7.80;3.63;;;8.70;65.60;;;;;;6266864;28;20461;-80
2021/01/01 04:28:52;;;;;;;8.77;4.07;;;8.70;65.80;;;;;;6264056;28;20083;-80
2021/01/01 04:31:53;;;;;;;12.73;4.25;;;8.70;65.80;;;;;;6257888;28;20044;-81
2021/01/01 04:34:55;;;;;;;14.57;4.78;;;8.70;65.80;;;;;;6242101;28;20064;-80
2021/01/01 04:37:56;;;;;;;7.13;3.40;;;8.70;65.90;;;;;;6274943;28;20039;-81
2021/01/01 04:40:58;;;;;;;10.30;4.03;;;8.70;65.90;;;;;;6256809;28;20086;-81
2021/01/01 04:44:00;;;;;;;11.85;4.63;;;8.70;65.80;;;;;;6249702;28;20041;-81
2021/01/01 04:47:04;;;;;;;9.50;3.67;;;8.70;65.80;;;;;;6276421;28;20122;-80
2021/01/01 04:50:06;;;;;;;8.93;4.22;;;8.70;66.80;;;;;;6258384;28;20037;-80
2021/01/01 04:53:09;;;;;;;7.63;3.55;;;8.80;66.00;;;;;;6275443;28;20048;-81
2021/01/01 04:56:10;;;;;;;9.60;4.20;;;8.80;65.90;;;;;;6240696;28;20045;-80
2021/01/01 04:59:14;;;;;;;12.75;3.67;;;8.80;65.80;;;;;;6257467;28;20045;-81
2021/01/01 05:02:15;;;;;;;7.10;3.63;;;8.80;65.80;;;;;;6232185;28;20056;-81
2021/01/01 05:05:22;;;;;;;7.05;3.35;;;8.70;65.90;;;;;;6207721;28;20041;-80
2021/01/01 05:08:23;;;;;;;8.80;3.83;;;8.70;66.10;;;;;;6233348;28;20409;-81
2021/01/01 05:11:24;;;;;;;6.88;3.65;;;8.60;66.30;;;;;;6250964;28;20388;-81
2021/01/01 05:14:28;;;;;;;13.38;5.25;;;8.60;66.50;;;;;;6233674;28;20048;-80
2021/01/01 05:17:36;;;;;;;7.53;4.63;;;8.60;66.60;;;;;;6231872;28;20033;-81
2021/01/01 05:20:37;;;;;;;7.00;3.92;;;8.60;66.60;;;;;;6264909;28;20441;-81
2021/01/01 05:23:41;;;;;;;6.63;3.45;;;8.60;66.50;;;;;;6250009;28;20056;-81
2021/01/01 05:26:48;;;;;;;6.35;3.13;;;8.60;66.40;;;;;;6232805;28;20356;-81
2021/01/01 05:29:54;;;;;;;6.63;3.65;;;8.60;66.60;;;;;;6249680;28;20037;-80
2021/01/01 05:32:55;;;;;;;8.52;4.22;;;8.60;66.80;;;;;;6235590;28;20122;-81
2021/01/01 05:36:06;;;;;;;5.63;3.25;;;8.60;66.90;;;;;;6232577;28;20405;-81
2021/01/01 05:39:27;;;;;;;2.95;1.92;;;8.60;67.90;;;;;;6232269;28;20053;-81
2021/01/01 05:42:28;;;;;;;5.05;2.33;;;8.50;67.20;;;;;;6231911;28;20040;-81
2021/01/01 05:45:29;;;;;;;5.25;2.17;;;8.50;67.40;;;;;;6242347;28;20044;-81
2021/01/01 05:48:30;;;;;;;3.80;2.20;;;8.40;67.40;;;;;;6246966;28;20026;-81
2021/01/01 05:51:31;;;;;;;7.20;2.97;;;8.40;67.50;;;;;;6246539;28;20029;-81
2021/01/01 05:54:37;;;;;;;2.22;1.60;;;8.40;67.50;;;;;;6259872;28;20038;-81
2021/01/01 05:57:38;;;;;;;1.67;1.20;;;8.40;67.70;;;;;;6284088;28;20461;-80
2021/01/01 06:00:40;;;;;;;2.33;1.30;;;8.30;67.70;;;;;;6239781;28;20480;-81
2021/01/01 06:03:41;;;;;;;0.98;0.80;;;8.30;67.60;;;;;;6256544;28;20029;-81
2021/01/01 06:06:43;;;;;;;3.03;1.20;;;8.30;67.70;;;;;;6239161;28;20331;-81
2021/01/01 06:09:45;;;;;;;1.77;1.10;;;8.30;67.70;;;;;;6256782;28;20226;-81
2021/01/01 06:12:51;;;;;;;2.05;0.80;;;8.30;67.70;;;;;;6286008;28;20017;-81
2021/01/01 06:16:01;;;;;;;1.23;0.77;;;8.30;67.50;;;;;;6268707;28;20025;-79
2021/01/01 06:19:09;;;;;;;2.63;1.05;;;8.30;67.60;;;;;;6276439;28;20339;-81
2021/01/01 06:22:22;;;;;;;2.10;1.13;;;8.30;67.60;;;;;;6257777;28;20049;-80
2021/01/01 06:25:24;;;;;;;2.60;0.88;;;8.30;67.70;;;;;;6256306;28;20466;-81
2021/01/01 06:28:26;;;;;;;1.80;0.85;;;8.20;67.60;;;;;;6280177;28;20026;-81
2021/01/01 06:31:28;;;;;;;0.40;0.30;;;8.20;67.60;;;;;;6232085;28;20029;-79
2021/01/01 06:34:30;;;;;;;1.25;1.00;;;8.20;67.60;;;;;;6271184;28;20029;-79
2021/01/01 06:37:38;;;;;;;0.93;0.65;;;8.20;67.50;;;;;;6284866;28;20025;-82
2021/01/01 06:40:39;;;;;;;0.38;0.38;;;8.20;67.50;;;;;;6248827;28;20048;-80
2021/01/01 06:43:56;;;;;;;0.57;0.40;;;8.20;67.50;;;;;;6279530;28;20343;-80
2021/01/01 06:46:57;;;;;;;0.45;0.30;;;8.20;67.70;;;;;;6282115;28;20465;-81
2021/01/01 06:49:58;;;;;;;0.35;0.35;;;8.10;67.60;;;;;;6233083;28;20037;-80
2021/01/01 06:53:03;;;;;;;0.28;0.28;;;8.20;67.50;;;;;;6262892;28;20025;-80
2021/01/01 06:56:11;;;;;;;0.38;0.20;;;8.10;67.10;;;;;;6289817;28;20066;-81
2021/01/01 06:59:14;;;;;;;0.20;0.20;;;8.10;66.80;;;;;;6287000;28;20127;-81
2021/01/01 07:02:26;;;;;;;0.38;0.25;;;8.10;66.80;;;;;;6319874;28;20437;-80
2021/01/01 07:05:27;;;;;;;0.40;0.40;;;8.00;66.70;;;;;;6296119;28;20409;-81
2021/01/01 07:08:40;;;;;;;2.60;0.43;;;8.00;66.60;;;;;;6270361;28;20036;-80
2021/01/01 07:11:42;;;;;;;0.75;0.57;;;8.00;66.60;;;;;;6287327;28;20480;-80
2021/01/01 07:14:43;;;;;;;0.85;0.55;;;8.00;66.70;;;;;;6289159;28;20067;-80
2021/01/01 07:17:48;;;;;;;0.77;0.70;;;8.00;66.60;;;;;;6288050;28;20214;-81
2021/01/01 07:20:49;;;;;;;1.73;1.00;;;8.00;66.60;;;;;;6277188;28;20028;-81
2021/01/01 07:23:50;;;;;;;1.10;0.80;;;8.10;66.70;;;;;;6246052;28;20060;-80
2021/01/01 07:26:51;;;;;;;2.25;1.02;;;8.00;66.60;;;;;;6241080;28;20533;-81
2021/01/01 07:34:21;;;;;;;2.22;1.13;;;8.00;66.50;;;;;;6038346;29;20041;-80
2021/01/01 07:37:25;;;;;;;5.03;2.28;;;8.00;66.60;;;;;;6039425;29;20478;-80
2021/01/01 07:40:26;;;;;;;9.57;3.08;;;8.00;66.70;;;;;;6079071;29;20055;-80
2021/01/01 07:43:30;;;;;;;3.25;1.90;;;8.00;66.60;;;;;;6060283;29;20495;-81
2021/01/01 07:46:32;;;;;;;2.58;1.60;;;8.00;66.40;;;;;;6064324;29;20075;-82
2021/01/01 07:49:33;;;;;;;2.78;1.90;;;8.10;66.40;;;;;;6082693;29;20147;-81
2021/01/01 07:52:33;;;;;;;3.33;1.45;;;8.00;66.20;;;;;;6100528;29;20048;-81
2021/01/01 07:55:35;;;;;;;3.15;1.80;;;8.10;66.30;;;;;;6091015;29;20051;-81
2021/01/01 07:58:37;;;;;;;2.78;1.50;;;8.00;66.00;;;;;;6054605;29;20052;-81
2021/01/01 08:01:38;;;;;;;6.22;1.70;;;8.10;66.20;;;;;;6080880;29;20040;-81
2021/01/01 08:04:42;;;;;;;3.63;1.73;;;8.10;66.20;;;;;;6095992;29;20028;-81
2021/01/01 08:07:43;;;;;;;2.45;1.42;;;8.10;66.00;;;;;;6128319;29;20351;-82
2021/01/01 08:10:47;;;;;;;2.53;1.85;;;8.10;66.00;;;;;;6172106;28;20033;-81
2021/01/01 08:13:48;;;;;;;4.43;1.98;;;8.10;66.00;;;;;;6208686;28;20026;-80
2021/01/01 08:16:49;;;;;;;3.40;1.83;;;8.20;65.90;;;;;;6208946;28;20212;-81
2021/01/01 08:19:51;;;;;;;4.18;2.08;;;8.10;65.80;;;;;;6226088;28;20046;-81
2021/01/01 08:22:55;;;;;;;2.05;1.33;;;8.10;65.90;;;;;;6229139;28;20048;-80
2021/01/01 08:25:57;;;;;;;2.58;1.25;;;8.10;65.90;;;;;;6250210;28;20129;-81
2021/01/01 08:28:59;;;;;;;3.75;2.17;;;8.10;65.90;;;;;;6222796;28;20037;-81
2021/01/01 08:32:00;;;;;;;2.80;1.88;;;8.10;65.80;;;;;;6231946;28;20129;-81
2021/01/01 08:35:01;;;;;;;2.72;1.90;;;8.10;65.90;;;;;;6241783;28;20354;-80
2021/01/01 08:38:19;;;;;;;4.13;2.00;;;8.20;66.60;;;;;;6264886;28;20473;-80
2021/01/01 08:41:20;;;;;;;3.80;2.00;;;8.20;65.70;;;;;;6240573;28;20454;-80
2021/01/01 08:44:24;;;;;;;2.67;2.08;;;8.20;65.50;;;;;;6274734;28;20036;-81
2021/01/01 08:48:07;;;;;;;2.47;1.88;;;8.20;65.50;;;;;;6257004;28;20311;-81
2021/01/01 08:51:08;;;;;;;3.65;2.45;;;8.10;65.50;;;;;;6156402;28;20042;-81
2021/01/01 08:54:38;;;;;;;2.15;1.88;;;8.30;65.50;;;;;;6129937;28;20038;-82
2021/01/01 08:58:24;;;;;;;3.42;2.03;;;8.20;65.40;;;;;;6177778;28;20513;-82
2021/01/01 09:02:11;;;;;;;2.78;1.88;;;8.20;65.30;;;;;;6067491;29;21205;-82
2021/01/01 09:05:14;;;;;;;3.25;1.73;;;8.20;65.20;;;;;;6097721;29;20052;-83
2021/01/01 09:08:27;;;;;;;3.05;2.08;;;8.20;65.20;;;;;;6105328;29;20040;-84
2021/01/01 09:11:31;;;;;;;3.55;1.52;;;8.10;65.40;;;;;;6097321;29;20066;-81
2021/01/01 09:14:46;;;;;;;3.80;1.70;;;8.10;65.50;;;;;;6104203;29;20312;-82
2021/01/01 09:17:47;;;;;;;2.97;2.00;;;8.20;65.70;;;;;;6080496;29;20103;-81
2021/01/01 09:21:27;;;;;;;4.95;2.35;;;8.30;65.40;;;;;;6083404;29;20040;-82
2021/01/01 09:24:34;;;;;;;3.05;1.85;;;8.20;65.30;;;;;;6092727;29;20045;-83
2021/01/01 09:27:45;;;;;;;3.92;2.20;;;8.20;65.10;;;;;;6132568;28;20041;-81
2021/01/01 09:30:49;;;;;;;4.10;2.05;;;8.30;65.20;;;;;;6128817;29;20200;-81
2021/01/01 09:34:08;;;;;;;3.50;2.22;;;8.30;65.00;;;;;;6127491;29;20436;-81
2021/01/01 09:37:11;;;;;;;2.90;1.60;;;8.20;64.70;;;;;;6171866;28;20076;-80
2021/01/01 09:40:44;;;;;;;3.00;1.65;;;8.20;64.80;;;;;;6230039;28;20124;-82
2021/01/01 09:44:10;;;;;;;1.27;1.17;;;8.10;64.90;;;;;;6140065;28;20035;-83
2021/01/01 09:47:12;;;;;;;2.50;1.35;;;8.10;65.00;;;;;;6192648;28;20146;-81
2021/01/01 09:50:14;;;;;;;3.80;1.90;;;8.10;65.10;;;;;;6175609;28;20046;-82
2021/01/01 09:53:16;;;;;;;3.22;1.83;;;8.10;65.20;;;;;;6139539;28;20039;-81
2021/01/01 10:00:18;;;;;;;3.58;1.80;;;8.20;65.50;;;;;;6139332;28;20047;-82
2021/01/01 10:03:23;;;;;;;2.03;1.40;;;8.20;65.40;;;;;;6184754;28;20034;-82
2021/01/01 10:06:24;;;;;;;3.17;1.42;;;8.20;65.10;;;;;;6158654;28;20062;-81
2021/01/01 10:09:26;;;;;;;4.43;1.35;;;8.20;65.10;;;;;;6178698;28;20116;-81
2021/01/01 10:12:27;;;;;;;2.70;1.50;;;8.10;64.80;;;;;;6158597;28;20035;-81
2021/01/01 10:15:28;;;;;;;2.65;1.55;;;8.30;64.70;;;;;;6157951;28;20081;-81
2021/01/01 10:18:29;;;;;;;1.20;1.10;;;8.20;64.60;;;;;;6178714;28;20038;-82
2021/01/01 10:21:53;;;;;;;2.67;1.52;;;8.20;64.60;;;;;;6139100;28;20042;-82
2021/01/01 10:25:53;;;;;;;3.15;1.60;;;8.20;64.70;;;;;;6073272;28;20143;-80
2021/01/01 10:29:03;;;;;;;2.85;1.52;;;8.20;64.60;;;;;;6153638;28;20038;-81
2021/01/01 10:32:32;;;;;;;2.40;1.50;;;8.20;64.60;;;;;;6135066;28;20035;-81
2021/01/01 10:35:51;;;;;;;2.28;1.83;;;8.30;64.70;;;;;;6150206;28;20065;-83
2021/01/01 10:39:26;;;;;;;18.45;6.45;;;8.30;64.50;;;;;;6119103;28;20046;-81
2021/01/01 10:47:47;;;;;;;26.58;9.50;;;8.50;64.60;;;;;;6138258;28;20039;-82
2021/01/01 10:51:42;;;;;;;3.97;2.60;;;8.50;64.20;;;;;;6018919;29;20048;-81
2021/01/01 10:59:54;;;;;;;6.00;2.80;;;8.40;63.80;;;;;;6003523;29;20045;-82
2021/01/01 11:03:43;;;;;;;8.10;3.30;;;8.40;63.60;;;;;;5992028;29;20045;-82
2021/01/01 11:06:53;;;;;;;3.50;2.33;;;8.30;63.50;;;;;;5955908;29;20038;-83
2021/01/01 11:10:47;;;;;;;1.70;1.35;;;8.30;63.50;;;;;;5974542;29;20042;-82
2021/01/01 12:25:33;;;;;;;3.00;2.22;;;8.40;62.90;;;;;;6149080;28;20684;-82
2021/01/01 12:28:36;;;;;;;5.70;2.80;;;8.40;63.10;;;;;;6162447;28;20262;-81
2021/01/01 12:31:39;;;;;;;5.10;3.15;;;8.30;63.10;;;;;;6160976;28;20126;-81
2021/01/01 12:34:41;;;;;;;4.28;2.78;;;8.30;63.30;;;;;;6158303;28;20054;-81
2021/01/01 12:37:42;;;;;;;3.60;2.30;;;8.30;63.30;;;;;;6165064;28;20042;-81
2021/01/01 12:40:43;;;;;;;5.63;2.90;;;8.20;63.30;;;;;;6175047;28;20057;-82
2021/01/01 12:44:10;;;;;;;4.07;2.35;;;8.20;63.30;;;;;;6170774;28;20109;-81
2021/01/01 12:47:12;;;;;;;3.83;2.00;;;8.20;63.50;;;;;;6173012;28;20475;-82
2021/01/01 12:50:13;;;;;;;4.32;2.60;;;8.20;63.70;;;;;;6173033;28;20134;-81
2021/01/01 12:53:14;;;;;;;4.28;2.40;;;8.20;63.80;;;;;;6172364;28;20077;-81
2021/01/01 12:56:15;;;;;;;5.97;2.88;;;8.20;63.90;;;;;;6256363;28;20037;-81
2021/01/01 12:59:19;;;;;;;5.03;2.85;;;8.20;63.90;;;;;;6261490;28;20067;-81
2021/01/01 13:02:20;;;;;;;3.80;2.35;;;8.30;63.70;;;;;;6269598;28;20086;-82
2021/01/01 13:05:21;;;;;;;5.13;2.90;;;8.30;63.30;;;;;;6271910;28;20070;-80
2021/01/01 13:08:22;;;;;;;4.93;3.08;;;8.30;63.30;;;;;;6264092;28;20024;-82
2021/01/01 13:11:26;;;;;;;4.30;2.40;;;8.40;63.20;;;;;;6254159;28;20361;-81
2021/01/01 13:14:27;;;;;;;6.18;2.90;;;8.40;63.10;;;;;;6262314;28;20079;-81
2021/01/01 13:17:28;;;;;;;3.63;2.28;;;8.50;63.00;;;;;;6264723;28;20461;-80
2021/01/01 13:20:29;;;;;;;4.95;3.00;;;8.50;62.80;;;;;;6276267;28;20044;-81
2021/01/01 13:23:30;;;;;;;4.57;3.38;;;8.50;62.70;;;;;;6301169;28;20086;-82
2021/01/01 13:26:32;;;;;;;5.07;2.80;;;8.30;62.60;;;;;;6279187;28;20074;-81
2021/01/01 13:29:36;;;;;;;8.05;4.40;;;8.50;62.70;;;;;;6305237;28;20064;-83
2021/01/01 13:32:45;;;;;;;6.53;3.83;;;8.60;62.80;;;;;;6247794;28;20127;-81
2021/01/01 13:35:51;;;;;;;7.93;3.22;;;8.60;62.50;;;;;;6294315;28;20059;-80
2021/01/01 13:38:52;;;;;;;3.45;2.00;;;8.70;62.60;;;;;;6307485;28;20039;-80
2021/01/01 13:41:54;;;;;;;6.30;3.10;;;8.70;62.30;;;;;;6288117;28;20055;-81
2021/01/01 13:44:56;;;;;;;6.53;3.65;;;8.80;62.30;;;;;;6269514;28;20028;-80
2021/01/01 13:47:57;;;;;;;5.75;3.38;;;8.80;62.20;;;;;;6281990;28;20035;-80
2021/01/01 13:50:58;;;;;;;4.63;3.17;;;8.80;62.10;;;;;;6270901;28;20024;-81
2021/01/01 13:54:00;;;;;;;7.70;4.10;;;8.80;62.20;;;;;;6281733;28;20422;-81
2021/01/01 13:57:03;;;;;;;5.55;3.03;;;8.80;62.40;;;;;;6301634;28;20379;-81
2021/01/01 14:00:04;;;;;;;6.63;3.10;;;8.80;62.30;;;;;;6267392;28;20051;-80
2021/01/01 14:03:32;;;;;;;5.53;3.53;;;8.80;62.10;;;;;;6247839;28;20116;-82
2021/01/01 14:06:33;;;;;;;6.53;3.67;;;8.70;62.20;;;;;;6282335;28;20028;-82
2021/01/01 14:09:34;;;;;;;7.85;3.22;;;8.60;62.10;;;;;;6271145;28;20032;-81
2021/01/01 14:12:35;;;;;;;7.40;4.20;;;8.60;62.40;;;;;;6251784;28;20446;-81
2021/01/01 14:15:36;;;;;;;5.97;3.47;;;8.60;62.60;;;;;;6268361;28;20048;-81
2021/01/01 14:18:37;;;;;;;6.47;3.40;;;8.60;62.70;;;;;;6275494;28;20051;-81
2021/01/01 14:21:38;;;;;;;6.05;3.45;;;8.60;62.80;;;;;;6294479;28;20025;-82
2021/01/01 14:24:40;;;;;;;6.30;4.13;;;8.60;62.80;;;;;;6270864;28;20358;-81
2021/01/01 14:27:42;;;;;;;7.07;4.13;;;8.60;62.80;;;;;;6246519;28;20030;-81
2021/01/01 14:30:43;;;;;;;4.57;3.40;;;8.60;62.90;;;;;;6247165;28;20017;-82
2021/01/01 14:33:46;;;;;;;7.90;3.67;;;8.60;62.90;;;;;;6236176;28;20111;-82
2021/01/01 14:36:48;;;;;;;6.32;3.90;;;8.60;62.90;;;;;;6221304;28;20053;-81
2021/01/01 14:39:50;;;;;;;5.63;3.00;;;8.60;62.80;;;;;;6221072;28;20402;-81
2021/01/01 14:42:52;;;;;;;5.53;3.20;;;8.60;62.80;;;;;;6252585;28;20117;-81
2021/01/01 14:45:53;;;;;;;4.30;3.13;;;8.60;62.90;;;;;;6203293;28;20030;-81
2021/01/01 14:48:54;;;;;;;8.55;3.40;;;8.60;62.90;;;;;;6222230;28;21810;-82
2021/01/01 14:51:55;;;;;;;9.52;3.60;;;8.60;63.60;;;;;;6245437;28;20116;-81
2021/01/01 14:54:56;;;;;;;5.55;3.08;;;8.60;62.90;;;;;;6228254;28;20314;-82
2021/01/01 14:57:57;;;;;;;6.53;3.22;;;8.60;63.00;;;;;;6243990;28;20459;-81
2021/01/01 15:00:58;;;;;;;9.35;3.25;;;8.60;62.90;;;;;;6243585;28;20039;-81
2021/01/01 15:03:59;;;;;;;5.15;3.50;;;8.60;62.90;;;;;;6257479;28;20124;-82
2021/01/01 15:07:00;;;;;;;4.68;2.72;;;8.60;63.70;;;;;;6227247;28;20042;-81
2021/01/01 15:10:04;;;;;;;4.55;2.58;;;8.70;63.10;;;;;;6244393;28;20474;-81
2021/01/01 15:13:05;;;;;;;8.00;3.58;;;8.70;62.90;;;;;;6247434;28;20096;-81
2021/01/01 15:16:07;;;;;;;5.60;3.13;;;8.60;62.80;;;;;;6250992;28;20037;-81
2021/01/01 15:19:08;;;;;;;8.90;4.30;;;8.70;62.80;;;;;;6240660;28;20414;-81
2021/01/01 15:22:14;;;;;;;8.98;4.25;;;8.60;62.80;;;;;;6252269;28;20036;-80
2021/01/01 15:25:16;;;;;;;4.60;2.70;;;8.60;63.00;;;;;;6250831;28;20041;-84
2021/01/01 15:28:17;;;;;;;6.40;3.20;;;8.60;63.10;;;;;;6258802;28;20116;-81
2021/01/01 15:31:18;;;;;;;9.77;4.70;;;8.60;62.80;;;;;;6276476;28;20047;-81
2021/01/01 15:34:21;;;;;;;7.60;4.30;;;8.50;62.80;;;;;;6259137;28;20117;-81
2021/01/01 15:37:23;;;;;;;6.68;3.75;;;8.60;63.00;;;;;;6261512;28;20049;-80
2021/01/01 15:40:28;;;;;;;6.75;4.25;;;8.50;62.90;;;;;;6281697;28;20047;-80
2021/01/01 15:43:31;;;;;;;7.47;3.88;;;8.50;63.00;;;;;;6276145;28;20403;-82
2021/01/01 15:46:32;;;;;;;6.57;3.90;;;8.50;63.20;;;;;;6276411;28;20040;-82
2021/01/01 15:49:34;;;;;;;5.10;2.33;;;8.50;63.00;;;;;;6273279;28;20458;-81
2021/01/01 15:52:35;;;;;;;6.53;2.97;;;8.50;62.90;;;;;;6227906;28;20035;-81
2021/01/01 15:55:36;;;;;;;6.28;3.28;;;8.40;62.40;;;;;;6276530;28;20136;-82
2021/01/01 15:58:38;;;;;;;9.77;4.20;;;8.30;62.60;;;;;;6237556;28;20030;-82
2021/01/01 16:01:39;;;;;;;7.82;4.15;;;8.30;62.80;;;;;;6194744;28;20022;-83
2021/01/01 16:04:41;;;;;;;7.75;3.60;;;8.20;62.80;;;;;;6228350;28;20026;-82
2021/01/01 16:07:42;;;;;;;5.10;2.80;;;8.20;63.00;;;;;;6243187;28;20034;-81
2021/01/01 16:10:43;;;;;;;6.10;3.40;;;8.20;63.00;;;;;;6228381;28;20029;-82
2021/01/01 16:13:44;;;;;;;4.63;2.05;;;8.10;62.90;;;;;;6243626;28;20026;-81
2021/01/01 16:16:46;;;;;;;7.32;3.47;;;8.10;62.80;;;;;;6228710;28;20049;-81
2021/01/01 16:19:48;;;;;;;6.53;3.75;;;8.10;62.80;;;;;;6229249;28;20053;-80
2021/01/01 16:22:49;;;;;;;7.63;4.15;;;8.10;63.10;;;;;;6225670;28;20112;-80
2021/01/01 16:25:50;;;;;;;4.80;3.05;;;8.10;63.20;;;;;;6209406;28;20117;-81
2021/01/01 16:28:51;;;;;;;10.52;4.25;;;8.20;63.20;;;;;;6241544;28;20033;-80
2021/01/01 16:31:52;;;;;;;6.47;3.78;;;8.10;63.20;;;;;;6250360;28;20204;-83
2021/01/01 16:34:53;;;;;;;6.40;3.53;;;8.20;63.40;;;;;;6234667;28;20045;-81
2021/01/01 16:37:54;;;;;;;12.18;4.57;;;8.20;63.40;;;;;;6235105;28;20162;-81
2021/01/01 16:40:55;;;;;;;4.88;2.53;;;8.20;63.00;;;;;;6252783;28;20446;-81
2021/01/01 16:43:56;;;;;;;8.48;3.58;;;8.20;62.80;;;;;;6234588;28;20021;-81
2021/01/01 16:47:03;;;;;;;6.47;3.65;;;8.10;62.80;;;;;;6220196;28;20090;-82
2021/01/01 16:50:06;;;;;;;4.55;3.03;;;8.00;62.90;;;;;;6232515;28;20129;-81
2021/01/01 16:53:08;;;;;;;7.57;4.03;;;8.00;63.00;;;;;;6251546;28;20044;-81
2021/01/01 16:56:09;;;;;;;8.60;4.45;;;8.00;63.20;;;;;;6251718;28;20052;-82
2021/01/01 16:59:11;;;;;;;5.65;3.50;;;8.00;63.40;;;;;;6253624;28;20040;-82
2021/01/01 17:02:12;;;;;;;9.98;4.78;;;8.00;63.50;;;;;;6261293;28;20453;-84
2021/01/01 17:05:23;;;;;;;8.15;4.40;;;8.00;63.60;;;;;;6248412;28;20124;-82
2021/01/01 17:08:23;;;;;;;6.93;3.20;;;8.10;63.60;;;;;;6280170;28;20025;-84
2021/01/01 17:11:24;;;;;;;5.30;3.00;;;8.10;63.40;;;;;;6277685;28;20201;-83
2021/01/01 17:14:25;;;;;;;7.45;4.28;;;8.10;63.20;;;;;;6243464;28;20036;-82
2021/01/01 17:17:27;;;;;;;7.40;4.32;;;8.20;63.20;;;;;;6261670;28;20029;-82
2021/01/01 17:42:37;;;;;;;14.40;6.35;;;8.10;63.20;;;;;;5905192;30;20044;-82
2021/01/01 17:45:39;;;;;;;8.35;5.45;;;8.30;63.40;;;;;;5887315;30;20047;-81
2021/01/01 17:48:40;;;;;;;13.40;6.32;;;8.20;63.30;;;;;;5882170;30;20115;-81
2021/01/01 17:51:41;;;;;;;16.27;7.65;;;8.30;63.30;;;;;;5877738;30;20405;-82
2021/01/01 17:54:42;;;;;;;11.50;6.03;;;8.30;63.30;;;;;;5879321;30;20068;-80
2021/01/01 17:57:43;;;;;;;9.38;5.43;;;8.30;63.20;;;;;;5874698;30;20117;-81
2021/01/01 18:00:44;;;;;;;14.40;7.93;;;8.30;63.30;;;;;;5851851;30;20077;-81
2021/01/01 18:03:46;;;;;;;11.38;5.78;;;8.40;63.30;;;;;;5872182;30;20073;-81
2021/01/01 18:06:47;;;;;;;15.27;8.65;;;8.40;63.20;;;;;;5968166;29;20043;-82